sensor_id;sensor_type;location;lat;lon;timestamp;pressure;altitude;pressure_sealevel;temperature;humidity
45040;BME280;30778;53.574;7.770;2023-05-21T00:01:16;102139.84;;;10.13;51.33
45040;BME280;30778;53.574;7.770;2023-05-21T00:03:42;102146.06;;;10.06;51.93
45040;BME280;30778;53.574;7.770;2023-05-21T00:06:11;102136.56;;;10.04;52.66
45040;BME280;30778;53.574;7.770;2023-05-21T00:08:37;102136.66;;;9.96;53.21
45040;BME280;30778;53.574;7.770;2023-05-21T00:11:03;102135.66;;;10.05;52.84
45040;BME280;30778;53.574;7.770;2023-05-21T00:13:29;102134.72;;;10.09;52.69
45040;BME280;30778;53.574;7.770;2023-05-21T00:15:54;102131.34;;;10.00;53.15
45040;BME280;30778;53.574;7.770;2023-05-21T00:18:19;102135.66;;;10.05;53.12
45040;BME280;30778;53.574;7.770;2023-05-21T00:20:46;102123.50;;;10.02;52.93
45040;BME280;30778;53.574;7.770;2023-05-21T00:23:11;102127.72;;;10.09;53.16
45040;BME280;30778;53.574;7.770;2023-05-21T00:25:37;102124.28;;;10.07;52.83
45040;BME280;30778;53.574;7.770;2023-05-21T00:28:02;102126.06;;;10.05;53.08
45040;BME280;30778;53.574;7.770;2023-05-21T00:30:28;102124.19;;;10.12;52.65
45040;BME280;30778;53.574;7.770;2023-05-21T00:32:53;102124.50;;;9.95;53.18
45040;BME280;30778;53.574;7.770;2023-05-21T00:35:19;102124.25;;;10.10;52.82
45040;BME280;30778;53.574;7.770;2023-05-21T00:37:44;102120.72;;;10.13;52.64
45040;BME280;30778;53.574;7.770;2023-05-21T00:40:11;102122.38;;;10.17;52.17
45040;BME280;30778;53.574;7.770;2023-05-21T00:42:37;102123.16;;;10.20;52.29
45040;BME280;30778;53.574;7.770;2023-05-21T00:45:04;102117.28;;;10.08;52.66
45040;BME280;30778;53.574;7.770;2023-05-21T00:47:30;102116.44;;;10.07;52.53
45040;BME280;30778;53.574;7.770;2023-05-21T00:49:56;102113.66;;;10.16;51.88
45040;BME280;30778;53.574;7.770;2023-05-21T00:52:21;102121.50;;;10.16;51.52
45040;BME280;30778;53.574;7.770;2023-05-21T00:54:48;102121.00;;;9.94;51.56
45040;BME280;30778;53.574;7.770;2023-05-21T00:57:16;102109.53;;;10.03;51.72
45040;BME280;30778;53.574;7.770;2023-05-21T00:59:45;102119.16;;;10.01;51.46
45040;BME280;30778;53.574;7.770;2023-05-21T01:02:11;102113.16;;;9.96;51.94
45040;BME280;30778;53.574;7.770;2023-05-21T01:04:38;102110.63;;;9.93;51.55
45040;BME280;30778;53.574;7.770;2023-05-21T01:07:04;102103.72;;;9.89;51.51
45040;BME280;30778;53.574;7.770;2023-05-21T01:09:30;102109.94;;;9.82;51.52
45040;BME280;30778;53.574;7.770;2023-05-21T01:11:56;102104.72;;;9.82;51.53
45040;BME280;30778;53.574;7.770;2023-05-21T01:14:22;102103.81;;;9.83;51.50
45040;BME280;30778;53.574;7.770;2023-05-21T01:16:49;102102.97;;;9.80;51.49
45040;BME280;30778;53.574;7.770;2023-05-21T01:19:19;102100.41;;;9.77;51.64
45040;BME280;30778;53.574;7.770;2023-05-21T01:21:48;102095.28;;;9.70;51.48
45040;BME280;30778;53.574;7.770;2023-05-21T01:24:15;102099.75;;;9.63;51.93
45040;BME280;30778;53.574;7.770;2023-05-21T01:26:41;102096.34;;;9.61;51.60
45040;BME280;30778;53.574;7.770;2023-05-21T01:29:09;102094.91;;;9.38;52.69
45040;BME280;30778;53.574;7.770;2023-05-21T01:34:10;102088.53;;;9.58;51.91
45040;BME280;30778;53.574;7.770;2023-05-21T01:36:43;102096.34;;;9.61;51.74
45040;BME280;30778;53.574;7.770;2023-05-21T01:39:16;102088.53;;;9.56;51.70
45040;BME280;30778;53.574;7.770;2023-05-21T01:41:44;102090.38;;;9.51;51.76
45040;BME280;30778;53.574;7.770;2023-05-21T01:44:13;102089.59;;;9.48;52.07
45040;BME280;30778;53.574;7.770;2023-05-21T01:46:41;102089.50;;;9.52;51.72
45040;BME280;30778;53.574;7.770;2023-05-21T01:49:07;102092.13;;;9.51;51.95
45040;BME280;30778;53.574;7.770;2023-05-21T01:51:33;102084.25;;;9.54;51.66
45040;BME280;30778;53.574;7.770;2023-05-21T01:54:00;102078.25;;;9.47;51.90
45040;BME280;30778;53.574;7.770;2023-05-21T01:56:26;102081.38;;;9.69;51.13
45040;BME280;30778;53.574;7.770;2023-05-21T01:58:54;102080.53;;;9.67;51.16
45040;BME280;30778;53.574;7.770;2023-05-21T02:01:21;102078.84;;;9.66;51.54
45040;BME280;30778;53.574;7.770;2023-05-21T02:03:46;102077.97;;;9.66;50.93
45040;BME280;30778;53.574;7.770;2023-05-21T02:06:12;102085.16;;;9.51;51.56
45040;BME280;30778;53.574;7.770;2023-05-21T02:08:37;102079.09;;;9.51;51.42
45040;BME280;30778;53.574;7.770;2023-05-21T02:11:03;102077.34;;;9.50;51.74
45040;BME280;30778;53.574;7.770;2023-05-21T02:13:29;102072.09;;;9.53;51.60
45040;BME280;30778;53.574;7.770;2023-05-21T02:15:54;102073.88;;;9.51;51.98
45040;BME280;30778;53.574;7.770;2023-05-21T02:18:20;102073.19;;;9.39;52.12
45040;BME280;30778;53.574;7.770;2023-05-21T02:20:46;102066.22;;;9.38;51.82
45040;BME280;30778;53.574;7.770;2023-05-21T02:23:12;102070.56;;;9.39;52.05
45040;BME280;30778;53.574;7.770;2023-05-21T02:25:37;102068.78;;;9.42;52.01
45040;BME280;30778;53.574;7.770;2023-05-21T02:28:03;102076.66;;;9.40;51.88
45040;BME280;30778;53.574;7.770;2023-05-21T02:30:29;102074.09;;;9.35;51.81
45040;BME280;30778;53.574;7.770;2023-05-21T02:32:55;102072.44;;;9.31;52.05
45040;BME280;30778;53.574;7.770;2023-05-21T02:35:23;102070.81;;;9.24;52.37
45040;BME280;30778;53.574;7.770;2023-05-21T02:37:48;102059.44;;;9.30;52.27
45040;BME280;30778;53.574;7.770;2023-05-21T02:40:14;102063.06;;;9.19;52.30
45040;BME280;30778;53.574;7.770;2023-05-21T02:42:40;102063.91;;;9.18;52.48
45040;BME280;30778;53.574;7.770;2023-05-21T02:45:08;102061.28;;;9.22;52.37
45040;BME280;30778;53.574;7.770;2023-05-21T02:47:35;102061.22;;;9.26;52.29
45040;BME280;30778;53.574;7.770;2023-05-21T02:50:00;102063.88;;;9.23;51.82
45040;BME280;30778;53.574;7.770;2023-05-21T02:52:27;102066.34;;;9.31;52.02
45040;BME280;30778;53.574;7.770;2023-05-21T02:54:52;102058.75;;;9.17;52.26
45040;BME280;30778;53.574;7.770;2023-05-21T02:57:18;102060.47;;;9.18;52.06
45040;BME280;30778;53.574;7.770;2023-05-21T02:59:44;102058.78;;;9.14;52.08
45040;BME280;30778;53.574;7.770;2023-05-21T03:02:10;102057.63;;;9.32;51.59
45040;BME280;30778;53.574;7.770;2023-05-21T03:04:35;102044.56;;;9.35;51.64
45040;BME280;30778;53.574;7.770;2023-05-21T03:07:04;102061.97;;;9.34;51.86
45040;BME280;30778;53.574;7.770;2023-05-21T03:09:29;102060.16;;;9.36;51.70
45040;BME280;30778;53.574;7.770;2023-05-21T03:11:56;102052.41;;;9.33;51.50
45040;BME280;30778;53.574;7.770;2023-05-21T03:14:22;102048.78;;;9.40;51.53
45040;BME280;30778;53.574;7.770;2023-05-21T03:16:49;102044.47;;;9.39;51.55
45040;BME280;30778;53.574;7.770;2023-05-21T03:19:16;102044.50;;;9.38;51.39
45040;BME280;30778;53.574;7.770;2023-05-21T03:21:42;102049.69;;;9.39;51.41
45040;BME280;30778;53.574;7.770;2023-05-21T03:24:08;102051.56;;;9.31;51.31
45040;BME280;30778;53.574;7.770;2023-05-21T03:26:34;102036.75;;;9.32;51.27
45040;BME280;30778;53.574;7.770;2023-05-21T03:28:59;102043.81;;;9.25;51.70
45040;BME280;30778;53.574;7.770;2023-05-21T03:31:26;102046.53;;;9.19;51.54
45040;BME280;30778;53.574;7.770;2023-05-21T03:34:05;102042.34;;;9.07;52.01
45040;BME280;30778;53.574;7.770;2023-05-21T03:36:32;102038.78;;;9.14;51.82
45040;BME280;30778;53.574;7.770;2023-05-21T03:38:58;102042.25;;;9.15;52.08
45040;BME280;30778;53.574;7.770;2023-05-21T03:41:23;102049.09;;;9.22;51.38
45040;BME280;30778;53.574;7.770;2023-05-21T03:43:55;102042.09;;;9.26;51.51
45040;BME280;30778;53.574;7.770;2023-05-21T03:46:24;102051.63;;;9.28;51.24
45040;BME280;30778;53.574;7.770;2023-05-21T03:49:13;102041.09;;;9.34;51.18
45040;BME280;30778;53.574;7.770;2023-05-21T03:51:39;102035.78;;;9.39;51.10
45040;BME280;30778;53.574;7.770;2023-05-21T03:54:06;102040.13;;;9.38;51.22
45040;BME280;30778;53.574;7.770;2023-05-21T03:56:36;102043.38;;;9.53;50.86
45040;BME280;30778;53.574;7.770;2023-05-21T03:59:01;102044.91;;;9.65;50.12
45040;BME280;30778;53.574;7.770;2023-05-21T04:01:28;102046.78;;;9.58;50.48
45040;BME280;30778;53.574;7.770;2023-05-21T04:03:53;102039.03;;;9.53;50.57
45040;BME280;30778;53.574;7.770;2023-05-21T04:06:22;102034.47;;;9.65;50.41
45040;BME280;30778;53.574;7.770;2023-05-21T04:08:47;102043.13;;;9.67;50.09
45040;BME280;30778;53.574;7.770;2023-05-21T04:11:13;102039.69;;;9.65;50.17
45040;BME280;30778;53.574;7.770;2023-05-21T04:13:39;102043.00;;;9.74;50.53
45040;BME280;30778;53.574;7.770;2023-05-21T04:16:05;102036.00;;;9.76;50.30
45040;BME280;30778;53.574;7.770;2023-05-21T04:18:33;102031.53;;;9.85;49.91
45040;BME280;30778;53.574;7.770;2023-05-21T04:21:00;102029.59;;;9.96;50.32
45040;BME280;30778;53.574;7.770;2023-05-21T04:23:26;102039.00;;;10.03;49.91
45040;BME280;30778;53.574;7.770;2023-05-21T04:25:53;102043.47;;;9.98;50.02
45040;BME280;30778;53.574;7.770;2023-05-21T04:28:19;102052.56;;;10.24;49.29
45040;BME280;30778;53.574;7.770;2023-05-21T04:30:46;102049.69;;;10.36;49.29
45040;BME280;30778;53.574;7.770;2023-05-21T04:33:12;102058.31;;;10.41;49.17
45040;BME280;30778;53.574;7.770;2023-05-21T04:35:43;102051.34;;;10.41;49.21
45040;BME280;30778;53.574;7.770;2023-05-21T04:38:10;102050.03;;;10.62;48.62
45040;BME280;30778;53.574;7.770;2023-05-21T04:40:36;102055.03;;;10.72;48.28
45040;BME280;30778;53.574;7.770;2023-05-21T04:43:02;102054.00;;;10.82;48.21
45040;BME280;30778;53.574;7.770;2023-05-21T04:45:28;102049.28;;;10.98;47.74
45040;BME280;30778;53.574;7.770;2023-05-21T04:47:54;102045.63;;;11.05;47.68
45040;BME280;30778;53.574;7.770;2023-05-21T04:50:19;102045.41;;;11.13;47.36
45040;BME280;30778;53.574;7.770;2023-05-21T04:52:44;102041.44;;;11.34;47.51
45040;BME280;30778;53.574;7.770;2023-05-21T04:55:10;102036.53;;;11.56;46.76
45040;BME280;30778;53.574;7.770;2023-05-21T04:57:36;102042.97;;;11.78;45.95
45040;BME280;30778;53.574;7.770;2023-05-21T05:00:02;102027.28;;;11.75;46.27
45040;BME280;30778;53.574;7.770;2023-05-21T05:02:36;102023.66;;;11.82;45.96
45040;BME280;30778;53.574;7.770;2023-05-21T05:05:01;102029.66;;;12.17;44.46
45040;BME280;30778;53.574;7.770;2023-05-21T05:07:27;102041.50;;;12.31;45.46
45040;BME280;30778;53.574;7.770;2023-05-21T05:09:52;102029.47;;;12.53;44.12
45040;BME280;30778;53.574;7.770;2023-05-21T05:12:18;102026.59;;;12.33;44.98
45040;BME280;30778;53.574;7.770;2023-05-21T05:14:46;102024.97;;;12.28;44.47
45040;BME280;30778;53.574;7.770;2023-05-21T05:17:12;102008.97;;;12.96;43.78
45040;BME280;30778;53.574;7.770;2023-05-21T05:19:41;102019.25;;;13.57;43.70
45040;BME280;30778;53.574;7.770;2023-05-21T05:22:07;102007.53;;;14.38;40.69
45040;BME280;30778;53.574;7.770;2023-05-21T05:24:34;102006.53;;;13.94;40.88
45040;BME280;30778;53.574;7.770;2023-05-21T05:26:59;102011.84;;;13.41;42.51
45040;BME280;30778;53.574;7.770;2023-05-21T05:29:25;102014.97;;;12.99;43.28
45040;BME280;30778;53.574;7.770;2023-05-21T05:31:51;102020.91;;;12.78;43.47
45040;BME280;30778;53.574;7.770;2023-05-21T05:34:16;102017.69;;;12.69;43.88
45040;BME280;30778;53.574;7.770;2023-05-21T05:36:42;102016.63;;;12.45;44.48
45040;BME280;30778;53.574;7.770;2023-05-21T05:39:07;102013.16;;;13.01;43.52
45040;BME280;30778;53.574;7.770;2023-05-21T05:41:33;102016.47;;;13.35;42.61
45040;BME280;30778;53.574;7.770;2023-05-21T05:43:59;102013.47;;;13.19;43.12
45040;BME280;30778;53.574;7.770;2023-05-21T05:46:28;102010.06;;;13.17;43.61
45040;BME280;30778;53.574;7.770;2023-05-21T05:48:53;102012.38;;;13.78;41.91
45040;BME280;30778;53.574;7.770;2023-05-21T05:51:19;102015.34;;;14.86;39.80
45040;BME280;30778;53.574;7.770;2023-05-21T05:53:44;102004.72;;;15.52;37.78
45040;BME280;30778;53.574;7.770;2023-05-21T05:56:10;102014.13;;;15.78;37.20
45040;BME280;30778;53.574;7.770;2023-05-21T05:58:35;102005.69;;;15.70;37.86
45040;BME280;30778;53.574;7.770;2023-05-21T06:01:12;102002.59;;;15.81;37.33
45040;BME280;30778;53.574;7.770;2023-05-21T06:03:38;102006.06;;;15.82;36.83
45040;BME280;30778;53.574;7.770;2023-05-21T06:06:09;102004.44;;;14.95;38.29
45040;BME280;30778;53.574;7.770;2023-05-21T06:08:36;102002.50;;;14.31;39.09
45040;BME280;30778;53.574;7.770;2023-05-21T06:11:02;102012.19;;;13.82;40.61
45040;BME280;30778;53.574;7.770;2023-05-21T06:13:27;102014.97;;;13.52;40.96
45040;BME280;30778;53.574;7.770;2023-05-21T06:15:53;102014.69;;;13.35;41.97
45040;BME280;30778;53.574;7.770;2023-05-21T06:18:19;102012.97;;;13.34;41.61
45040;BME280;30778;53.574;7.770;2023-05-21T06:20:44;102008.44;;;13.13;42.19
45040;BME280;30778;53.574;7.770;2023-05-21T06:23:10;102013.66;;;12.86;42.71
45040;BME280;30778;53.574;7.770;2023-05-21T06:25:36;102004.44;;;12.73;43.31
45040;BME280;30778;53.574;7.770;2023-05-21T06:28:02;101999.88;;;12.49;44.35
45040;BME280;30778;53.574;7.770;2023-05-21T06:30:29;102008.47;;;12.55;44.77
45040;BME280;30778;53.574;7.770;2023-05-21T06:32:55;102001.47;;;12.85;44.12
45040;BME280;30778;53.574;7.770;2023-05-21T06:35:22;101997.78;;;12.61;44.14
45040;BME280;30778;53.574;7.770;2023-05-21T06:37:47;102001.50;;;12.24;45.61
45040;BME280;30778;53.574;7.770;2023-05-21T06:40:13;102000.34;;;12.34;45.62
45040;BME280;30778;53.574;7.770;2023-05-21T06:42:39;101997.84;;;12.29;45.81
45040;BME280;30778;53.574;7.770;2023-05-21T06:45:27;102003.09;;;12.29;45.80
45040;BME280;30778;53.574;7.770;2023-05-21T06:47:57;101993.59;;;12.55;45.33
45040;BME280;30778;53.574;7.770;2023-05-21T06:50:23;101999.63;;;12.57;45.21
45040;BME280;30778;53.574;7.770;2023-05-21T06:52:49;101992.41;;;12.65;45.24
45040;BME280;30778;53.574;7.770;2023-05-21T06:55:15;101992.06;;;12.48;45.70
45040;BME280;30778;53.574;7.770;2023-05-21T06:57:59;101987.81;;;12.44;45.45
45040;BME280;30778;53.574;7.770;2023-05-21T07:00:24;101980.41;;;12.58;45.35
45040;BME280;30778;53.574;7.770;2023-05-21T07:02:50;101982.50;;;13.03;45.61
45040;BME280;30778;53.574;7.770;2023-05-21T07:05:15;101986.63;;;13.10;44.11
45040;BME280;30778;53.574;7.770;2023-05-21T07:07:41;101989.91;;;12.90;44.63
45040;BME280;30778;53.574;7.770;2023-05-21T07:10:07;101977.53;;;13.21;44.13
45040;BME280;30778;53.574;7.770;2023-05-21T07:12:34;101979.97;;;12.74;45.06
45040;BME280;30778;53.574;7.770;2023-05-21T07:15:02;101978.78;;;13.09;44.66
45040;BME280;30778;53.574;7.770;2023-05-21T07:17:28;101975.19;;;13.38;44.40
45040;BME280;30778;53.574;7.770;2023-05-21T07:19:53;101969.75;;;12.91;44.76
45040;BME280;30778;53.574;7.770;2023-05-21T07:22:19;101967.34;;;13.63;43.55
45040;BME280;30778;53.574;7.770;2023-05-21T07:24:45;101971.66;;;13.89;43.27
45040;BME280;30778;53.574;7.770;2023-05-21T07:27:10;101975.91;;;14.63;42.50
45040;BME280;30778;53.574;7.770;2023-05-21T07:29:36;101973.28;;;14.85;42.36
45040;BME280;30778;53.574;7.770;2023-05-21T07:32:01;101963.63;;;14.41;41.93
45040;BME280;30778;53.574;7.770;2023-05-21T07:34:28;101962.16;;;14.32;42.39
45040;BME280;30778;53.574;7.770;2023-05-21T07:36:54;101966.84;;;14.70;41.42
45040;BME280;30778;53.574;7.770;2023-05-21T07:39:20;101963.97;;;14.98;40.51
45040;BME280;30778;53.574;7.770;2023-05-21T07:41:47;101972.22;;;14.89;40.54
45040;BME280;30778;53.574;7.770;2023-05-21T07:44:14;101963.56;;;15.07;40.90
45040;BME280;30778;53.574;7.770;2023-05-21T07:46:41;101969.28;;;15.39;40.71
45040;BME280;30778;53.574;7.770;2023-05-21T07:49:07;101973.94;;;16.13;40.49
45040;BME280;30778;53.574;7.770;2023-05-21T07:51:43;101973.72;;;16.36;38.70
45040;BME280;30778;53.574;7.770;2023-05-21T07:54:09;101970.63;;;15.89;39.37
45040;BME280;30778;53.574;7.770;2023-05-21T07:56:35;101968.16;;;16.05;39.04
45040;BME280;30778;53.574;7.770;2023-05-21T07:59:01;101971.00;;;16.19;39.19
45040;BME280;30778;53.574;7.770;2023-05-21T08:01:27;101972.22;;;16.31;38.40
45040;BME280;30778;53.574;7.770;2023-05-21T08:03:54;101970.25;;;15.96;38.13
45040;BME280;30778;53.574;7.770;2023-05-21T08:06:20;101955.69;;;15.69;39.06
45040;BME280;30778;53.574;7.770;2023-05-21T08:11:14;101956.88;;;15.41;39.81
45040;BME280;30778;53.574;7.770;2023-05-21T08:13:40;101958.28;;;15.29;40.16
45040;BME280;30778;53.574;7.770;2023-05-21T08:16:08;101952.84;;;15.12;41.15
45040;BME280;30778;53.574;7.770;2023-05-21T08:18:33;101957.19;;;15.35;39.82
45040;BME280;30778;53.574;7.770;2023-05-21T08:20:59;101961.13;;;15.45;40.37
45040;BME280;30778;53.574;7.770;2023-05-21T08:23:26;101962.59;;;15.10;40.82
45040;BME280;30778;53.574;7.770;2023-05-21T08:25:54;101968.75;;;14.88;41.20
45040;BME280;30778;53.574;7.770;2023-05-21T08:28:21;101960.78;;;14.90;41.72
45040;BME280;30778;53.574;7.770;2023-05-21T08:30:46;101967.63;;;14.94;41.92
45040;BME280;30778;53.574;7.770;2023-05-21T08:33:12;101968.63;;;14.47;42.18
45040;BME280;30778;53.574;7.770;2023-05-21T08:35:38;101971.31;;;14.46;42.99
45040;BME280;30778;53.574;7.770;2023-05-21T08:38:30;101968.94;;;14.84;42.78
45040;BME280;30778;53.574;7.770;2023-05-21T08:41:11;101966.44;;;15.01;42.31
45040;BME280;30778;53.574;7.770;2023-05-21T08:43:37;101969.56;;;15.33;41.18
45040;BME280;30778;53.574;7.770;2023-05-21T08:46:05;101967.53;;;15.40;41.12
45040;BME280;30778;53.574;7.770;2023-05-21T08:48:36;101962.31;;;15.38;42.18
45040;BME280;30778;53.574;7.770;2023-05-21T08:51:03;101971.31;;;15.32;41.28
45040;BME280;30778;53.574;7.770;2023-05-21T08:53:32;101965.28;;;15.51;41.11
45040;BME280;30778;53.574;7.770;2023-05-21T08:56:04;101959.22;;;15.49;42.09
45040;BME280;30778;53.574;7.770;2023-05-21T08:58:40;101955.00;;;15.45;42.21
45040;BME280;30778;53.574;7.770;2023-05-21T09:01:10;101947.59;;;15.32;41.51
45040;BME280;30778;53.574;7.770;2023-05-21T09:03:39;101955.31;;;15.57;41.85
45040;BME280;30778;53.574;7.770;2023-05-21T09:06:10;101951.81;;;15.57;41.53
45040;BME280;30778;53.574;7.770;2023-05-21T09:08:42;101956.63;;;15.47;42.04
45040;BME280;30778;53.574;7.770;2023-05-21T09:11:41;101961.19;;;16.23;41.09
45040;BME280;30778;53.574;7.770;2023-05-21T09:14:08;101957.94;;;16.54;40.14
45040;BME280;30778;53.574;7.770;2023-05-21T09:16:48;101949.88;;;16.57;40.82
45040;BME280;30778;53.574;7.770;2023-05-21T09:19:14;101946.78;;;16.66;40.07
45040;BME280;30778;53.574;7.770;2023-05-21T09:21:40;101941.25;;;16.90;40.16
45040;BME280;30778;53.574;7.770;2023-05-21T09:24:11;101943.69;;;16.39;40.44
45040;BME280;30778;53.574;7.770;2023-05-21T09:26:41;101953.13;;;16.26;41.30
45040;BME280;30778;53.574;7.770;2023-05-21T09:29:07;101943.50;;;16.06;41.18
45040;BME280;30778;53.574;7.770;2023-05-21T09:31:32;101943.91;;;15.96;41.56
45040;BME280;30778;53.574;7.770;2023-05-21T09:33:59;101947.78;;;16.27;41.50
45040;BME280;30778;53.574;7.770;2023-05-21T09:36:25;101937.56;;;16.38;41.23
45040;BME280;30778;53.574;7.770;2023-05-21T09:38:53;101938.00;;;16.66;40.58
45040;BME280;30778;53.574;7.770;2023-05-21T09:41:19;101921.69;;;16.94;39.82
45040;BME280;30778;53.574;7.770;2023-05-21T09:43:46;101933.94;;;17.30;40.09
45040;BME280;30778;53.574;7.770;2023-05-21T09:46:13;101934.84;;;17.46;39.41
45040;BME280;30778;53.574;7.770;2023-05-21T09:48:41;101937.28;;;17.84;38.14
45040;BME280;30778;53.574;7.770;2023-05-21T09:51:15;101931.13;;;17.83;38.00
45040;BME280;30778;53.574;7.770;2023-05-21T09:53:49;101932.19;;;18.13;38.82
45040;BME280;30778;53.574;7.770;2023-05-21T09:56:17;101927.38;;;18.21;37.83
45040;BME280;30778;53.574;7.770;2023-05-21T09:58:43;101916.03;;;17.70;38.70
45040;BME280;30778;53.574;7.770;2023-05-21T10:01:09;101918.94;;;17.81;39.05
45040;BME280;30778;53.574;7.770;2023-05-21T10:03:37;101923.47;;;17.95;39.39
45040;BME280;30778;53.574;7.770;2023-05-21T10:06:06;101917.84;;;18.17;38.91
45040;BME280;30778;53.574;7.770;2023-05-21T10:08:34;101913.22;;;18.04;38.18
45040;BME280;30778;53.574;7.770;2023-05-21T10:11:03;101916.06;;;18.33;38.16
45040;BME280;30778;53.574;7.770;2023-05-21T10:13:30;101913.13;;;18.54;38.38
45040;BME280;30778;53.574;7.770;2023-05-21T10:16:00;101912.66;;;18.77;37.84
45040;BME280;30778;53.574;7.770;2023-05-21T10:18:28;101907.78;;;18.85;36.78
45040;BME280;30778;53.574;7.770;2023-05-21T10:20:55;101906.88;;;18.71;38.33
45040;BME280;30778;53.574;7.770;2023-05-21T10:23:22;101902.25;;;19.19;37.39
45040;BME280;30778;53.574;7.770;2023-05-21T10:25:48;101899.06;;;18.83;38.32
45040;BME280;30778;53.574;7.770;2023-05-21T10:28:15;101900.09;;;18.51;38.80
45040;BME280;30778;53.574;7.770;2023-05-21T10:30:43;101897.16;;;19.01;38.62
45040;BME280;30778;53.574;7.770;2023-05-21T10:33:11;101893.66;;;19.15;37.89
45040;BME280;30778;53.574;7.770;2023-05-21T10:35:39;101891.19;;;18.82;38.22
45040;BME280;30778;53.574;7.770;2023-05-21T10:38:07;101894.47;;;18.71;39.40
45040;BME280;30778;53.574;7.770;2023-05-21T10:40:34;101886.88;;;18.03;39.86
45040;BME280;30778;53.574;7.770;2023-05-21T10:43:20;101884.38;;;18.16;39.94
45040;BME280;30778;53.574;7.770;2023-05-21T10:46:06;101892.22;;;18.49;39.45
45040;BME280;30778;53.574;7.770;2023-05-21T10:51:27;101890.84;;;18.58;39.41
45040;BME280;30778;53.574;7.770;2023-05-21T10:54:14;101891.63;;;18.74;39.38
45040;BME280;30778;53.574;7.770;2023-05-21T10:56:48;101888.13;;;18.89;38.45
45040;BME280;30778;53.574;7.770;2023-05-21T10:59:27;101883.16;;;18.23;39.90
45040;BME280;30778;53.574;7.770;2023-05-21T11:01:58;101889.41;;;18.82;38.80
45040;BME280;30778;53.574;7.770;2023-05-21T11:04:27;101885.41;;;18.75;38.53
45040;BME280;30778;53.574;7.770;2023-05-21T11:06:53;101880.53;;;18.83;39.41
45040;BME280;30778;53.574;7.770;2023-05-21T11:09:19;101884.47;;;19.06;38.34
45040;BME280;30778;53.574;7.770;2023-05-21T11:11:51;101878.59;;;18.71;39.41
45040;BME280;30778;53.574;7.770;2023-05-21T11:14:37;101884.66;;;19.03;38.54
45040;BME280;30778;53.574;7.770;2023-05-21T11:17:11;101876.59;;;18.91;38.57
45040;BME280;30778;53.574;7.770;2023-05-21T11:19:41;101878.16;;;18.79;39.01
45040;BME280;30778;53.574;7.770;2023-05-21T11:22:27;101869.97;;;18.98;38.67
45040;BME280;30778;53.574;7.770;2023-05-21T11:24:56;101872.34;;;19.02;38.48
45040;BME280;30778;53.574;7.770;2023-05-21T11:27:38;101864.88;;;18.95;38.15
45040;BME280;30778;53.574;7.770;2023-05-21T11:30:08;101873.06;;;18.60;39.43
45040;BME280;30778;53.574;7.770;2023-05-21T11:32:39;101862.91;;;18.22;39.82
45040;BME280;30778;53.574;7.770;2023-05-21T11:35:05;101865.09;;;17.98;40.63
45040;BME280;30778;53.574;7.770;2023-05-21T11:37:32;101869.72;;;18.26;40.75
45040;BME280;30778;53.574;7.770;2023-05-21T11:40:18;101864.78;;;18.66;39.92
45040;BME280;30778;53.574;7.770;2023-05-21T11:42:48;101864.19;;;18.31;40.27
45040;BME280;30778;53.574;7.770;2023-05-21T11:45:16;101850.25;;;18.11;40.65
45040;BME280;30778;53.574;7.770;2023-05-21T11:47:43;101857.63;;;18.22;40.12
45040;BME280;30778;53.574;7.770;2023-05-21T11:50:12;101862.63;;;18.11;41.11
45040;BME280;30778;53.574;7.770;2023-05-21T11:52:38;101854.44;;;17.99;40.65
45040;BME280;30778;53.574;7.770;2023-05-21T11:55:05;101854.09;;;18.05;41.45
45040;BME280;30778;53.574;7.770;2023-05-21T11:57:31;101854.50;;;18.14;40.63
45040;BME280;30778;53.574;7.770;2023-05-21T12:00:01;101856.00;;;18.19;40.79
45040;BME280;30778;53.574;7.770;2023-05-21T12:02:40;101860.25;;;18.22;41.04
45040;BME280;30778;53.574;7.770;2023-05-21T12:05:08;101861.44;;;18.00;41.32
45040;BME280;30778;53.574;7.770;2023-05-21T12:07:34;101859.56;;;18.34;40.71
45040;BME280;30778;53.574;7.770;2023-05-21T12:09:59;101861.78;;;18.10;41.13
45040;BME280;30778;53.574;7.770;2023-05-21T12:12:26;101860.59;;;17.84;41.27
45040;BME280;30778;53.574;7.770;2023-05-21T12:14:53;101862.31;;;17.85;41.49
45040;BME280;30778;53.574;7.770;2023-05-21T12:17:22;101852.81;;;18.29;41.48
45040;BME280;30778;53.574;7.770;2023-05-21T12:19:50;101858.03;;;18.14;41.26
45040;BME280;30778;53.574;7.770;2023-05-21T12:22:15;101852.41;;;18.20;41.25
45040;BME280;30778;53.574;7.770;2023-05-21T12:24:42;101850.16;;;18.13;41.33
45040;BME280;30778;53.574;7.770;2023-05-21T12:27:08;101847.22;;;18.19;41.88
45040;BME280;30778;53.574;7.770;2023-05-21T12:29:36;101861.53;;;17.83;41.69
45040;BME280;30778;53.574;7.770;2023-05-21T12:32:04;101856.31;;;17.65;42.14
45040;BME280;30778;53.574;7.770;2023-05-21T12:34:43;101851.28;;;17.77;42.16
45040;BME280;30778;53.574;7.770;2023-05-21T12:37:20;101854.13;;;17.90;42.43
45040;BME280;30778;53.574;7.770;2023-05-21T12:39:50;101857.84;;;18.01;41.63
45040;BME280;30778;53.574;7.770;2023-05-21T12:42:23;101856.75;;;18.05;42.63
45040;BME280;30778;53.574;7.770;2023-05-21T12:44:51;101847.81;;;17.92;41.93
45040;BME280;30778;53.574;7.770;2023-05-21T12:47:17;101840.47;;;17.81;41.98
45040;BME280;30778;53.574;7.770;2023-05-21T12:49:44;101842.84;;;17.86;42.04
45040;BME280;30778;53.574;7.770;2023-05-21T12:52:13;101838.47;;;18.17;42.02
45040;BME280;30778;53.574;7.770;2023-05-21T12:54:40;101834.94;;;18.48;41.33
45040;BME280;30778;53.574;7.770;2023-05-21T12:57:15;101838.78;;;18.42;41.21
45040;BME280;30778;53.574;7.770;2023-05-21T13:00:00;101837.41;;;18.51;41.21
45040;BME280;30778;53.574;7.770;2023-05-21T13:02:28;101827.81;;;18.34;41.71
45040;BME280;30778;53.574;7.770;2023-05-21T13:05:02;101834.56;;;18.24;41.47